createdAt,value
2023-04-15T00:00:58.670Z,6.50
2023-04-15T00:06:00.831Z,6.43
2023-04-15T00:11:05.982Z,9.73
2023-04-15T00:16:09.079Z,7.30
2023-04-15T00:21:11.198Z,7.03
2023-04-15T00:26:15.597Z,5.83
2023-04-15T00:31:17.843Z,6.40
2023-04-15T00:36:19.927Z,6.40
2023-04-15T00:41:23.140Z,8.13
2023-04-15T00:46:26.827Z,7.70
2023-04-15T00:51:28.975Z,7.00
2023-04-15T00:56:31.457Z,6.77
2023-04-15T01:01:38.685Z,6.93
2023-04-15T01:06:41.252Z,6.43
2023-04-15T01:11:43.448Z,7.77
2023-04-15T01:16:45.817Z,7.73
2023-04-15T01:21:48.061Z,7.17
2023-04-15T01:26:50.813Z,7.17
2023-04-15T01:31:53.968Z,8.80
2023-04-15T01:36:59.060Z,8.10
2023-04-15T01:42:03.675Z,8.00
2023-04-15T01:47:05.852Z,7.83
2023-04-15T01:52:10.954Z,8.50
2023-04-15T01:57:13.545Z,8.40
2023-04-15T02:02:15.647Z,8.43
2023-04-15T02:07:17.801Z,8.33
2023-04-15T02:12:19.980Z,8.57
2023-04-15T02:17:22.112Z,8.83
2023-04-15T02:22:25.388Z,10.87
2023-04-15T02:27:28.825Z,9.83
2023-04-15T02:32:30.907Z,10.20
2023-04-15T02:37:36.552Z,11.00
2023-04-15T02:42:39.658Z,10.30
2023-04-15T02:47:41.828Z,10.87
2023-04-15T02:52:44.990Z,11.17
2023-04-15T02:57:47.264Z,10.40
2023-04-15T03:03:42.226Z,12.50
2023-04-15T03:08:44.102Z,11.10
2023-04-15T03:13:46.056Z,10.63
2023-04-15T03:18:47.895Z,12.83
2023-04-15T03:23:49.896Z,10.43
2023-04-15T03:28:51.716Z,11.23
2023-04-15T03:33:53.666Z,11.43
2023-04-15T03:38:56.907Z,12.17
2023-04-15T03:44:01.592Z,10.87
2023-04-15T03:49:04.216Z,12.73
2023-04-15T03:54:07.908Z,12.77
2023-04-15T03:59:13.821Z,13.10
2023-04-15T04:04:17.088Z,15.93
2023-04-15T04:09:20.090Z,11.87
2023-04-15T04:14:26.717Z,12.23
2023-04-15T04:19:30.163Z,12.00
2023-04-15T04:24:32.506Z,11.20
2023-04-15T04:29:35.817Z,14.50
2023-04-15T04:34:41.077Z,11.20
2023-04-15T04:39:43.304Z,11.90
2023-04-15T04:44:45.338Z,13.40
2023-04-15T04:49:47.435Z,13.10
2023-04-15T04:54:52.652Z,11.47
2023-04-15T04:59:54.699Z,11.40
2023-04-15T05:05:09.844Z,13.07
2023-04-15T05:10:22.320Z,14.03
2023-04-15T05:15:24.762Z,12.90
2023-04-15T05:20:30.149Z,12.10
2023-04-15T05:25:38.646Z,13.80
2023-04-15T05:30:46.398Z,13.30
2023-04-15T05:35:48.524Z,14.20
2023-04-15T05:40:51.381Z,13.50
2023-04-15T05:45:53.552Z,12.87
2023-04-15T05:50:57.115Z,13.17
2023-04-15T05:55:59.233Z,12.83
2023-04-15T06:01:04.286Z,13.63
2023-04-15T06:06:07.500Z,12.50
2023-04-15T06:11:11.923Z,14.30
2023-04-15T06:16:13.909Z,13.13
2023-04-15T06:21:18.559Z,14.17
2023-04-15T06:26:22.647Z,15.57
2023-04-15T06:31:25.285Z,18.80
2023-04-15T06:36:27.995Z,15.73
2023-04-15T06:41:29.822Z,14.03
2023-04-15T06:46:37.869Z,16.20
2023-04-15T06:51:39.970Z,14.87
2023-04-15T06:56:42.254Z,15.13
2023-04-15T07:01:44.490Z,16.50
2023-04-15T07:06:48.760Z,18.80
2023-04-15T07:11:52.621Z,15.87
2023-04-15T07:16:56.761Z,18.23
2023-04-15T07:21:58.907Z,16.50
2023-04-15T07:27:01.890Z,15.53
2023-04-15T07:32:05.036Z,19.83
2023-04-15T07:37:08.345Z,15.00
2023-04-15T07:42:16.321Z,15.27
2023-04-15T07:47:24.062Z,15.83
2023-04-15T07:52:28.540Z,15.57
2023-04-15T07:57:30.848Z,13.87
2023-04-15T08:02:33.019Z,16.47
2023-04-15T08:07:35.272Z,15.37
2023-04-15T08:12:50.095Z,17.10
2023-04-15T08:17:54.580Z,17.07
2023-04-15T08:23:02.268Z,18.80
2023-04-15T08:28:08.188Z,20.33
2023-04-15T08:33:17.603Z,18.37
2023-04-15T08:38:21.270Z,21.30
2023-04-15T08:43:28.790Z,22.30
2023-04-15T08:48:35.957Z,20.93
2023-04-15T08:53:38.554Z,20.13
2023-04-15T08:58:40.453Z,17.80
2023-04-15T09:03:47.059Z,19.30
2023-04-15T09:08:50.668Z,17.53
2023-04-15T09:13:53.468Z,13.97
2023-04-15T09:18:55.766Z,15.20
2023-04-15T09:24:01.226Z,12.90
2023-04-15T09:29:07.919Z,14.43
2023-04-15T09:34:10.167Z,11.57
2023-04-15T09:39:14.654Z,10.57
2023-04-15T09:44:24.140Z,11.20
2023-04-15T09:49:28.951Z,10.90
2023-04-15T09:54:38.248Z,8.53
2023-04-15T10:05:00.197Z,9.20
2023-04-15T10:10:08.446Z,15.00
2023-04-15T10:15:23.323Z,7.20
2023-04-15T10:20:29.467Z,8.20
2023-04-15T10:25:41.828Z,5.80
2023-04-15T10:30:52.277Z,6.13
2023-04-15T10:36:00.444Z,6.40
2023-04-15T10:41:15.437Z,6.30
2023-04-15T10:46:20.938Z,10.80
2023-04-15T10:51:33.986Z,6.30
2023-04-15T10:56:36.782Z,8.17
2023-04-15T11:02:01.825Z,5.23
2023-04-15T11:07:07.535Z,5.07
2023-04-15T11:12:24.210Z,7.07
2023-04-15T11:17:32.621Z,6.57
2023-04-15T11:22:34.632Z,8.20
2023-04-15T11:27:36.454Z,7.33
2023-04-15T11:32:42.768Z,7.47
2023-04-15T11:37:58.402Z,8.00
2023-04-15T11:43:10.447Z,8.93
2023-04-15T11:48:13.901Z,8.17
2023-04-15T11:53:18.999Z,10.03
2023-04-15T11:58:25.435Z,9.93
2023-04-15T12:03:30.164Z,10.27
2023-04-15T12:09:00.240Z,8.33
2023-04-15T12:14:05.533Z,8.03
2023-04-15T12:19:19.626Z,6.90
2023-04-15T12:24:23.160Z,7.00
2023-04-15T12:29:35.869Z,7.43
2023-04-15T12:34:45.733Z,7.27
2023-04-15T12:39:57.528Z,5.43
2023-04-15T12:44:59.609Z,5.10
2023-04-15T12:50:11.867Z,5.93
2023-04-15T12:55:16.788Z,5.07
2023-04-15T13:00:22.598Z,5.33
2023-04-15T13:05:40.783Z,4.30
2023-04-15T13:10:52.803Z,4.20
2023-04-15T13:15:54.866Z,4.33
2023-04-15T13:21:08.485Z,4.00
2023-04-15T13:26:16.016Z,5.40
2023-04-15T13:31:18.559Z,4.27
2023-04-15T13:36:20.635Z,5.47
2023-04-15T13:41:22.674Z,5.10
2023-04-15T13:46:27.883Z,3.80
2023-04-15T13:51:30.005Z,5.97
2023-04-15T13:56:32.655Z,5.03
2023-04-15T14:01:35.858Z,4.07
2023-04-15T14:06:37.791Z,4.77
2023-04-15T14:12:00.172Z,3.70
2023-04-15T14:17:06.721Z,5.97
2023-04-15T14:22:19.588Z,3.57
2023-04-15T14:27:21.749Z,5.17
2023-04-15T14:32:26.102Z,4.60
2023-04-15T14:37:32.698Z,5.17
2023-04-15T14:42:34.608Z,6.07
2023-04-15T14:47:41.045Z,7.20
2023-04-15T14:57:58.856Z,7.93
2023-04-15T15:03:00.796Z,8.00
2023-04-15T15:08:06.185Z,8.53
2023-04-15T15:13:09.546Z,11.60
2023-04-15T15:18:14.179Z,14.13
2023-04-15T15:23:18.173Z,12.37
2023-04-15T15:28:21.728Z,11.07
2023-04-15T15:33:23.721Z,11.93
2023-04-15T15:38:26.286Z,11.27
2023-04-15T15:43:31.128Z,13.30
2023-04-15T15:48:33.042Z,16.57
2023-04-15T15:53:35.414Z,15.67
2023-04-15T15:58:40.905Z,16.83
2023-04-15T16:03:43.026Z,14.03
2023-04-15T16:08:47.707Z,14.47
2023-04-15T16:13:49.823Z,14.37
2023-04-15T16:18:51.827Z,12.60
2023-04-15T16:23:54.158Z,12.97
2023-04-15T16:28:56.244Z,17.63
2023-04-15T16:33:58.547Z,15.73
2023-04-15T16:39:00.483Z,18.10
2023-04-15T16:44:09.449Z,17.40
2023-04-15T16:49:12.205Z,19.83
2023-04-15T16:54:14.815Z,17.77
2023-04-15T16:59:16.812Z,19.20
2023-04-15T17:04:18.850Z,20.77
2023-04-15T17:09:23.536Z,16.53
2023-04-15T17:14:28.051Z,16.30
2023-04-15T17:19:30.014Z,16.87
2023-04-15T17:24:35.506Z,15.27
2023-04-15T17:29:37.562Z,14.77
2023-04-15T17:34:50.172Z,14.83
2023-04-15T17:39:57.760Z,13.90
2023-04-15T17:45:02.598Z,14.63
2023-04-15T17:50:05.054Z,15.63
2023-04-15T17:55:07.564Z,16.47
2023-04-15T18:00:15.321Z,13.40
2023-04-15T18:05:40.259Z,13.33
2023-04-15T18:10:46.379Z,16.40
2023-04-15T18:15:49.526Z,18.73
2023-04-15T18:21:06.748Z,18.23
2023-04-15T18:26:18.988Z,16.03
2023-04-15T18:31:50.210Z,18.93
2023-04-15T18:43:36.698Z,18.40
2023-04-15T18:48:53.823Z,17.10
2023-04-15T18:53:56.273Z,26.23
2023-04-15T18:59:09.219Z,18.53
2023-04-15T19:04:24.146Z,23.80
2023-04-15T19:09:30.409Z,22.73
2023-04-15T19:14:32.453Z,21.27
2023-04-15T19:19:39.596Z,21.63
2023-04-15T19:24:44.585Z,20.90
2023-04-15T19:29:46.601Z,25.30
2023-04-15T19:34:49.145Z,29.13
2023-04-15T19:39:56.826Z,23.23
2023-04-15T19:45:17.290Z,26.17
2023-04-15T19:50:34.387Z,23.00
2023-04-15T19:55:39.929Z,20.63
2023-04-15T20:00:43.517Z,25.10
2023-04-15T20:05:48.075Z,37.63
2023-04-15T20:10:50.021Z,25.57
2023-04-15T20:15:52.431Z,26.17
2023-04-15T20:20:54.511Z,30.53
2023-04-15T20:25:56.664Z,25.60
2023-04-15T20:31:00.550Z,26.17
2023-04-15T20:36:02.491Z,27.33
2023-04-15T20:41:04.355Z,38.27
2023-04-15T20:46:17.720Z,34.53
2023-04-15T20:51:22.709Z,36.77
2023-04-15T20:56:24.702Z,42.03
2023-04-15T21:01:26.750Z,43.70
2023-04-15T21:06:28.648Z,38.37
2023-04-15T21:11:53.395Z,43.07
2023-04-15T21:16:54.059Z,34.10
2023-04-15T21:21:56.068Z,38.87
2023-04-15T21:27:00.890Z,36.93
2023-04-15T21:32:03.314Z,43.40
2023-04-15T21:37:05.574Z,44.03
2023-04-15T21:42:07.824Z,44.00
2023-04-15T21:47:15.485Z,42.20
2023-04-15T21:52:17.655Z,46.90
2023-04-15T21:57:19.542Z,44.10
2023-04-15T22:02:21.670Z,49.10
2023-04-15T22:07:23.853Z,49.67
2023-04-15T22:12:28.291Z,54.00
2023-04-15T22:17:30.807Z,50.73
2023-04-15T22:22:43.960Z,45.20
2023-04-15T22:27:46.284Z,42.43
2023-04-15T22:32:48.084Z,48.23
2023-04-15T22:37:53.007Z,43.30
2023-04-15T22:42:54.733Z,47.70
2023-04-15T22:47:56.790Z,44.43
2023-04-15T22:52:58.630Z,46.03
2023-04-15T22:58:00.471Z,44.03
2023-04-15T23:03:02.572Z,45.53
2023-04-15T23:08:04.431Z,34.77
2023-04-15T23:13:06.171Z,40.37
2023-04-15T23:18:08.251Z,41.77
2023-04-15T23:23:10.292Z,37.33
2023-04-15T23:28:12.682Z,38.70
2023-04-15T23:33:14.550Z,37.10
2023-04-15T23:38:16.518Z,43.97
2023-04-15T23:43:19.643Z,41.90
2023-04-15T23:48:24.571Z,41.80
2023-04-15T23:53:26.374Z,45.67
2023-04-15T23:58:28.380Z,41.87
